Aviation Digital Data Service (ADDS)

Output produced by METARs form (0239 UTC 25 January 2020)
found at http://www.aviationweather.gov/metar/data/
 
Forecast for: GCTS (TENERIFE SUR/REI, ES)
Text: TAF GCTS 250200Z 2503/2603 35006KT 9999 FEW040 TX21/2515Z TN14/2506Z
Forecast period: 0300 to 1000 UTC 25 January 2020
Forecast type: FROM: standard forecast or significant change
Winds: from the N (350 degrees) at 7 MPH (6 knots; 3.1 m/s)
Visibility: 6 or more miles 10+ km)
Ceiling: at least 12,000 feet AGL
Clouds: few clouds at 4000 feet AGL
Weather: no significant weather forecast for this period
Text: BECMG 2510/2512 13010KT
Forecast period: 1000 to 1800 UTC 25 January 2020
Forecast type: BECOMING: Conditions expected to become as follows by 1200 UTC 25 January 2020
Winds: from the SE (130 degrees) at 12 MPH (10 knots; 5.1 m/s)
Visibility: 6 or more miles 10+ km)
Ceiling: at least 12,000 feet AGL
Clouds: few clouds at 4000 feet AGL
Weather: no significant weather forecast for this period
Text: BECMG 2518/2521 36005KT
Forecast period: 1800 UTC 25 January 2020 to 0300 UTC 26 January 2020
Forecast type: BECOMING: Conditions expected to become as follows by 2100 UTC 25 January 2020
Winds: from the N (360 degrees) at 6 MPH (5 knots; 2.6 m/s)
Visibility: 6 or more miles 10+ km)
Ceiling: at least 12,000 feet AGL
Clouds: few clouds at 4000 feet AGL
Weather: no significant weather forecast for this period